sensor_id;sensor_type;location;lat;lon;timestamp;pressure;altitude;pressure_sealevel;temperature;humidity
44131;BME280;29792;48.726;9.248;2024-03-23T00:56:09;96186.88;;;10.59;73.71
44131;BME280;29792;48.726;9.248;2024-03-23T00:58:34;96179.06;;;10.60;73.95
44131;BME280;29792;48.726;9.248;2024-03-23T01:01:00;96160.00;;;10.63;73.96
44131;BME280;29792;48.726;9.248;2024-03-23T01:03:25;96161.50;;;10.65;74.38
44131;BME280;29792;48.726;9.248;2024-03-23T01:05:50;96156.91;;;10.69;74.07
44131;BME280;29792;48.726;9.248;2024-03-23T01:08:15;96155.66;;;10.73;74.46
44131;BME280;29792;48.726;9.248;2024-03-23T01:10:41;96158.06;;;10.75;74.26
44131;BME280;29792;48.726;9.248;2024-03-23T01:13:06;96160.34;;;10.78;74.32
44131;BME280;29792;48.726;9.248;2024-03-23T01:15:32;96161.16;;;10.78;73.51
44131;BME280;29792;48.726;9.248;2024-03-23T01:17:57;96158.44;;;10.80;73.81
44131;BME280;29792;48.726;9.248;2024-03-23T01:20:23;96150.47;;;10.83;73.25
44131;BME280;29792;48.726;9.248;2024-03-23T01:22:48;96144.41;;;10.84;73.79
44131;BME280;29792;48.726;9.248;2024-03-23T01:25:13;96144.88;;;10.87;73.44
44131;BME280;29792;48.726;9.248;2024-03-23T01:27:39;96133.84;;;10.87;73.42
44131;BME280;29792;48.726;9.248;2024-03-23T01:30:04;96139.75;;;10.87;73.39
44131;BME280;29792;48.726;9.248;2024-03-23T01:32:30;96135.44;;;10.88;73.58
44131;BME280;29792;48.726;9.248;2024-03-23T01:34:55;96134.50;;;10.89;73.59
44131;BME280;29792;48.726;9.248;2024-03-23T01:37:20;96129.91;;;10.92;73.63
44131;BME280;29792;48.726;9.248;2024-03-23T01:39:45;96123.50;;;10.96;74.06
44131;BME280;29792;48.726;9.248;2024-03-23T01:42:11;96126.88;;;10.97;73.86
44131;BME280;29792;48.726;9.248;2024-03-23T01:44:36;96125.00;;;10.99;73.81
44131;BME280;29792;48.726;9.248;2024-03-23T01:47:01;96124.03;;;11.00;74.46
44131;BME280;29792;48.726;9.248;2024-03-23T01:49:26;96123.22;;;10.99;74.80
44131;BME280;29792;48.726;9.248;2024-03-23T01:51:52;96119.28;;;11.05;75.41
44131;BME280;29792;48.726;9.248;2024-03-23T01:54:17;96110.63;;;11.06;76.19
44131;BME280;29792;48.726;9.248;2024-03-23T01:56:43;96105.84;;;11.11;75.64
44131;BME280;29792;48.726;9.248;2024-03-23T01:59:08;96096.94;;;11.15;75.93
44131;BME280;29792;48.726;9.248;2024-03-23T02:01:37;96100.00;;;11.19;75.84
44131;BME280;29792;48.726;9.248;2024-03-23T02:04:02;96097.28;;;11.20;75.73
44131;BME280;29792;48.726;9.248;2024-03-23T02:06:28;96094.44;;;11.23;76.17
44131;BME280;29792;48.726;9.248;2024-03-23T02:08:54;96081.94;;;11.28;75.86
44131;BME280;29792;48.726;9.248;2024-03-23T02:11:19;96078.16;;;11.32;75.75
44131;BME280;29792;48.726;9.248;2024-03-23T02:13:45;96065.19;;;11.34;75.55
44131;BME280;29792;48.726;9.248;2024-03-23T02:16:10;96068.38;;;11.36;75.97
44131;BME280;29792;48.726;9.248;2024-03-23T02:18:35;96070.13;;;11.35;75.78
44131;BME280;29792;48.726;9.248;2024-03-23T02:21:01;96072.41;;;11.38;76.03
44131;BME280;29792;48.726;9.248;2024-03-23T02:23:26;96060.41;;;11.39;75.70
44131;BME280;29792;48.726;9.248;2024-03-23T02:25:52;96063.78;;;11.39;75.43
44131;BME280;29792;48.726;9.248;2024-03-23T02:28:18;96066.34;;;11.39;75.80
44131;BME280;29792;48.726;9.248;2024-03-23T02:30:44;96043.41;;;11.38;76.29
44131;BME280;29792;48.726;9.248;2024-03-23T02:33:09;96053.81;;;11.36;76.22
44131;BME280;29792;48.726;9.248;2024-03-23T02:35:34;96046.09;;;11.36;75.99
44131;BME280;29792;48.726;9.248;2024-03-23T02:37:59;96048.66;;;11.36;76.18
44131;BME280;29792;48.726;9.248;2024-03-23T02:40:25;96041.94;;;11.35;76.17
44131;BME280;29792;48.726;9.248;2024-03-23T02:42:50;96047.06;;;11.35;76.98
44131;BME280;29792;48.726;9.248;2024-03-23T02:45:16;96048.66;;;11.36;76.70
44131;BME280;29792;48.726;9.248;2024-03-23T02:47:41;96047.06;;;11.35;76.64
44131;BME280;29792;48.726;9.248;2024-03-23T02:50:07;96055.56;;;11.36;76.94
44131;BME280;29792;48.726;9.248;2024-03-23T02:52:32;96035.38;;;11.33;77.06
44131;BME280;29792;48.726;9.248;2024-03-23T02:54:58;96032.28;;;11.29;77.32
44131;BME280;29792;48.726;9.248;2024-03-23T02:57:23;96030.38;;;11.31;77.63
44131;BME280;29792;48.726;9.248;2024-03-23T02:59:49;96029.44;;;11.32;78.21
44131;BME280;29792;48.726;9.248;2024-03-23T03:02:15;96025.91;;;11.33;78.40
44131;BME280;29792;48.726;9.248;2024-03-23T03:04:40;96022.41;;;11.34;78.51
44131;BME280;29792;48.726;9.248;2024-03-23T03:07:05;96025.59;;;11.36;78.52
44131;BME280;29792;48.726;9.248;2024-03-23T03:09:31;96016.16;;;11.37;78.59
44131;BME280;29792;48.726;9.248;2024-03-23T03:11:56;96016.81;;;11.39;78.49
44131;BME280;29792;48.726;9.248;2024-03-23T03:14:22;96015.72;;;11.41;79.04
44131;BME280;29792;48.726;9.248;2024-03-23T03:16:47;96012.19;;;11.42;78.76
44131;BME280;29792;48.726;9.248;2024-03-23T03:19:12;96017.00;;;11.45;79.12
44131;BME280;29792;48.726;9.248;2024-03-23T03:21:38;96022.78;;;11.47;79.40
44131;BME280;29792;48.726;9.248;2024-03-23T03:24:05;96019.41;;;11.47;79.25
44131;BME280;29792;48.726;9.248;2024-03-23T03:26:31;96013.47;;;11.46;79.04
44131;BME280;29792;48.726;9.248;2024-03-23T03:28:57;96011.22;;;11.43;79.53
44131;BME280;29792;48.726;9.248;2024-03-23T03:31:22;96014.56;;;11.44;79.80
44131;BME280;29792;48.726;9.248;2024-03-23T03:33:49;96006.06;;;11.43;79.91
44131;BME280;29792;48.726;9.248;2024-03-23T03:36:14;96000.00;;;11.44;79.70
44131;BME280;29792;48.726;9.248;2024-03-23T03:38:40;95993.78;;;11.47;80.05
44131;BME280;29792;48.726;9.248;2024-03-23T03:41:05;95995.69;;;11.45;79.99
44131;BME280;29792;48.726;9.248;2024-03-23T03:43:31;95995.69;;;11.45;80.33
44131;BME280;29792;48.726;9.248;2024-03-23T03:45:58;95994.72;;;11.46;80.43
44131;BME280;29792;48.726;9.248;2024-03-23T03:48:24;95984.78;;;11.43;80.24
44131;BME280;29792;48.726;9.248;2024-03-23T03:50:49;95981.41;;;11.42;80.25
44131;BME280;29792;48.726;9.248;2024-03-23T03:53:14;95974.69;;;11.41;79.86
44131;BME280;29792;48.726;9.248;2024-03-23T03:55:40;95977.25;;;11.41;80.11
44131;BME280;29792;48.726;9.248;2024-03-23T03:58:05;95967.94;;;11.40;79.63
44131;BME280;29792;48.726;9.248;2024-03-23T04:00:30;95964.88;;;11.37;80.14
44131;BME280;29792;48.726;9.248;2024-03-23T04:02:56;95945.63;;;11.33;80.17
44131;BME280;29792;48.726;9.248;2024-03-23T04:05:22;95941.59;;;11.30;79.84
44131;BME280;29792;48.726;9.248;2024-03-23T04:07:47;95932.47;;;11.28;80.38
44131;BME280;29792;48.726;9.248;2024-03-23T04:10:13;95930.06;;;11.26;80.84
44131;BME280;29792;48.726;9.248;2024-03-23T04:12:38;95924.13;;;11.26;80.85
44131;BME280;29792;48.726;9.248;2024-03-23T04:15:04;95921.72;;;11.24;80.91
44131;BME280;29792;48.726;9.248;2024-03-23T04:17:30;95916.59;;;11.24;80.74
44131;BME280;29792;48.726;9.248;2024-03-23T04:20:00;95900.41;;;11.24;81.34
44131;BME280;29792;48.726;9.248;2024-03-23T04:22:25;95892.56;;;11.25;81.75
44131;BME280;29792;48.726;9.248;2024-03-23T04:24:53;95884.06;;;11.25;82.23
44131;BME280;29792;48.726;9.248;2024-03-23T04:27:18;95884.88;;;11.25;82.61
44131;BME280;29792;48.726;9.248;2024-03-23T04:29:47;95884.56;;;11.28;82.24
44131;BME280;29792;48.726;9.248;2024-03-23T04:32:13;95885.22;;;11.30;82.19
44131;BME280;29792;48.726;9.248;2024-03-23T04:34:39;95880.22;;;11.29;82.10
44131;BME280;29792;48.726;9.248;2024-03-23T04:37:04;95881.19;;;11.28;82.33
44131;BME280;29792;48.726;9.248;2024-03-23T04:39:29;95880.56;;;11.26;82.43
44131;BME280;29792;48.726;9.248;2024-03-23T04:41:55;95877.34;;;11.24;82.65
44131;BME280;29792;48.726;9.248;2024-03-23T04:44:20;95887.75;;;11.22;83.16
44131;BME280;29792;48.726;9.248;2024-03-23T04:46:46;95886.13;;;11.21;83.07
44131;BME280;29792;48.726;9.248;2024-03-23T04:49:11;95888.69;;;11.21;83.57
44131;BME280;29792;48.726;9.248;2024-03-23T04:51:36;95910.16;;;11.20;84.01
44131;BME280;29792;48.726;9.248;2024-03-23T04:54:03;95911.63;;;11.23;84.58
44131;BME280;29792;48.726;9.248;2024-03-23T04:56:29;95915.63;;;11.25;84.54
44131;BME280;29792;48.726;9.248;2024-03-23T04:58:54;95905.06;;;11.28;84.71
44131;BME280;29792;48.726;9.248;2024-03-23T05:01:19;95931.06;;;11.33;84.74
44131;BME280;29792;48.726;9.248;2024-03-23T05:03:45;95942.44;;;11.39;85.66
44131;BME280;29792;48.726;9.248;2024-03-23T05:06:10;95950.66;;;11.42;86.96
44131;BME280;29792;48.726;9.248;2024-03-23T05:08:35;95954.03;;;11.43;88.16
44131;BME280;29792;48.726;9.248;2024-03-23T05:11:00;95961.19;;;11.39;91.34
44131;BME280;29792;48.726;9.248;2024-03-23T05:13:26;95962.41;;;11.27;93.42
44131;BME280;29792;48.726;9.248;2024-03-23T05:15:55;95955.97;;;11.15;95.86
44131;BME280;29792;48.726;9.248;2024-03-23T05:18:21;95945.81;;;11.05;98.01
44131;BME280;29792;48.726;9.248;2024-03-23T05:20:46;95936.31;;;10.98;99.69
44131;BME280;29792;48.726;9.248;2024-03-23T05:23:12;95938.69;;;10.91;100.00
44131;BME280;29792;48.726;9.248;2024-03-23T05:25:37;95954.50;;;10.87;100.00
44131;BME280;29792;48.726;9.248;2024-03-23T05:28:03;95956.84;;;10.80;100.00
44131;BME280;29792;48.726;9.248;2024-03-23T05:30:28;95960.84;;;10.75;100.00
44131;BME280;29792;48.726;9.248;2024-03-23T05:32:53;95960.50;;;10.69;100.00
44131;BME280;29792;48.726;9.248;2024-03-23T05:35:19;95970.69;;;10.61;100.00
44131;BME280;29792;48.726;9.248;2024-03-23T05:37:44;95960.06;;;10.56;100.00
44131;BME280;29792;48.726;9.248;2024-03-23T05:40:11;95963.88;;;10.52;100.00
44131;BME280;29792;48.726;9.248;2024-03-23T05:42:37;95975.34;;;10.48;100.00
44131;BME280;29792;48.726;9.248;2024-03-23T05:45:03;95985.38;;;10.42;100.00
44131;BME280;29792;48.726;9.248;2024-03-23T05:47:31;96004.69;;;10.36;100.00
44131;BME280;29792;48.726;9.248;2024-03-23T05:49:56;96020.63;;;10.30;100.00
44131;BME280;29792;48.726;9.248;2024-03-23T05:52:22;96022.00;;;10.24;100.00
44131;BME280;29792;48.726;9.248;2024-03-23T05:54:47;96018.44;;;10.17;100.00
44131;BME280;29792;48.726;9.248;2024-03-23T05:57:12;96024.91;;;10.12;100.00
44131;BME280;29792;48.726;9.248;2024-03-23T05:59:38;96022.25;;;10.04;100.00
44131;BME280;29792;48.726;9.248;2024-03-23T06:02:03;96028.25;;;9.94;100.00
44131;BME280;29792;48.726;9.248;2024-03-23T06:04:29;96033.63;;;9.91;100.00
44131;BME280;29792;48.726;9.248;2024-03-23T06:06:54;96023.16;;;9.85;100.00
44131;BME280;29792;48.726;9.248;2024-03-23T06:09:19;96037.34;;;9.79;100.00
44131;BME280;29792;48.726;9.248;2024-03-23T06:11:45;96036.00;;;9.75;100.00
44131;BME280;29792;48.726;9.248;2024-03-23T06:14:10;96057.41;;;9.74;100.00
44131;BME280;29792;48.726;9.248;2024-03-23T06:16:35;96060.25;;;9.71;100.00
44131;BME280;29792;48.726;9.248;2024-03-23T06:19:01;96058.25;;;9.65;100.00
44131;BME280;29792;48.726;9.248;2024-03-23T06:21:28;96052.38;;;9.55;100.00
44131;BME280;29792;48.726;9.248;2024-03-23T06:23:54;96062.06;;;9.51;100.00
44131;BME280;29792;48.726;9.248;2024-03-23T06:26:20;96066.94;;;9.45;100.00
44131;BME280;29792;48.726;9.248;2024-03-23T06:28:48;96074.22;;;9.40;100.00
44131;BME280;29792;48.726;9.248;2024-03-23T06:31:13;96084.47;;;9.30;100.00
44131;BME280;29792;48.726;9.248;2024-03-23T06:33:39;96096.03;;;9.25;100.00
44131;BME280;29792;48.726;9.248;2024-03-23T06:36:05;96104.13;;;9.20;100.00
44131;BME280;29792;48.726;9.248;2024-03-23T06:38:31;96103.72;;;9.15;100.00
44131;BME280;29792;48.726;9.248;2024-03-23T06:40:56;96108.53;;;9.08;100.00
44131;BME280;29792;48.726;9.248;2024-03-23T06:43:21;96117.31;;;9.06;100.00
44131;BME280;29792;48.726;9.248;2024-03-23T06:45:53;96126.16;;;9.02;100.00
44131;BME280;29792;48.726;9.248;2024-03-23T06:48:19;96113.94;;;8.96;100.00
44131;BME280;29792;48.726;9.248;2024-03-23T06:50:45;96132.88;;;8.93;100.00
44131;BME280;29792;48.726;9.248;2024-03-23T06:53:11;96136.53;;;8.91;100.00
44131;BME280;29792;48.726;9.248;2024-03-23T06:55:36;96155.34;;;8.90;100.00
44131;BME280;29792;48.726;9.248;2024-03-23T06:58:01;96155.75;;;8.85;100.00
44131;BME280;29792;48.726;9.248;2024-03-23T07:00:27;96154.41;;;8.81;100.00
44131;BME280;29792;48.726;9.248;2024-03-23T07:02:52;96166.50;;;8.79;100.00
44131;BME280;29792;48.726;9.248;2024-03-23T07:05:18;96170.91;;;8.77;100.00
44131;BME280;29792;48.726;9.248;2024-03-23T07:07:43;96151.16;;;8.79;100.00
44131;BME280;29792;48.726;9.248;2024-03-23T07:10:08;96169.72;;;8.81;100.00
44131;BME280;29792;48.726;9.248;2024-03-23T07:12:33;96178.06;;;8.83;100.00
44131;BME280;29792;48.726;9.248;2024-03-23T07:14:59;96158.16;;;8.87;100.00
44131;BME280;29792;48.726;9.248;2024-03-23T07:17:24;96181.56;;;8.92;100.00
44131;BME280;29792;48.726;9.248;2024-03-23T07:19:49;96184.25;;;8.90;100.00
44131;BME280;29792;48.726;9.248;2024-03-23T07:22:14;96179.53;;;8.95;100.00
44131;BME280;29792;48.726;9.248;2024-03-23T07:24:40;96180.09;;;8.99;100.00
44131;BME280;29792;48.726;9.248;2024-03-23T07:27:05;96178.19;;;9.01;100.00
44131;BME280;29792;48.726;9.248;2024-03-23T07:29:31;96176.19;;;9.04;100.00
44131;BME280;29792;48.726;9.248;2024-03-23T07:31:56;96184.25;;;9.09;100.00
44131;BME280;29792;48.726;9.248;2024-03-23T07:34:21;96202.44;;;9.16;100.00
44131;BME280;29792;48.726;9.248;2024-03-23T07:36:47;96205.38;;;9.31;100.00
44131;BME280;29792;48.726;9.248;2024-03-23T07:39:12;96202.97;;;9.39;100.00
44131;BME280;29792;48.726;9.248;2024-03-23T07:41:37;96207.94;;;9.40;100.00
44131;BME280;29792;48.726;9.248;2024-03-23T07:44:03;96215.06;;;9.37;100.00
44131;BME280;29792;48.726;9.248;2024-03-23T07:46:28;96217.34;;;9.30;100.00
44131;BME280;29792;48.726;9.248;2024-03-23T07:48:53;96214.25;;;9.27;100.00
44131;BME280;29792;48.726;9.248;2024-03-23T07:51:22;96213.19;;;9.29;100.00
44131;BME280;29792;48.726;9.248;2024-03-23T07:53:48;96220.03;;;9.29;100.00
44131;BME280;29792;48.726;9.248;2024-03-23T07:56:14;96222.34;;;9.32;100.00
44131;BME280;29792;48.726;9.248;2024-03-23T07:58:44;96231.06;;;9.39;100.00
44131;BME280;29792;48.726;9.248;2024-03-23T08:01:11;96231.88;;;9.39;100.00
44131;BME280;29792;48.726;9.248;2024-03-23T08:03:38;96249.91;;;9.38;100.00
44131;BME280;29792;48.726;9.248;2024-03-23T08:06:10;96279.91;;;9.36;100.00
44131;BME280;29792;48.726;9.248;2024-03-23T08:08:36;96282.84;;;9.31;100.00
44131;BME280;29792;48.726;9.248;2024-03-23T08:11:01;96280.66;;;9.17;100.00
44131;BME280;29792;48.726;9.248;2024-03-23T08:13:27;96278.50;;;9.03;100.00
44131;BME280;29792;48.726;9.248;2024-03-23T08:15:56;96301.97;;;8.87;100.00
44131;BME280;29792;48.726;9.248;2024-03-23T08:18:22;96301.53;;;8.72;100.00
44131;BME280;29792;48.726;9.248;2024-03-23T08:20:47;96299.59;;;8.55;100.00
44131;BME280;29792;48.726;9.248;2024-03-23T08:23:19;96307.19;;;8.46;100.00
44131;BME280;29792;48.726;9.248;2024-03-23T08:25:45;96334.56;;;8.43;100.00
44131;BME280;29792;48.726;9.248;2024-03-23T08:28:10;96363.59;;;8.43;100.00
44131;BME280;29792;48.726;9.248;2024-03-23T08:30:35;96362.22;;;8.38;100.00
44131;BME280;29792;48.726;9.248;2024-03-23T08:33:00;96374.28;;;8.36;100.00
44131;BME280;29792;48.726;9.248;2024-03-23T08:35:26;96375.38;;;8.34;100.00
44131;BME280;29792;48.726;9.248;2024-03-23T08:37:51;96382.88;;;8.35;100.00
44131;BME280;29792;48.726;9.248;2024-03-23T08:40:16;96379.16;;;8.39;100.00
44131;BME280;29792;48.726;9.248;2024-03-23T08:42:41;96365.44;;;8.61;100.00
44131;BME280;29792;48.726;9.248;2024-03-23T08:45:07;96344.66;;;9.06;100.00
44131;BME280;29792;48.726;9.248;2024-03-23T08:47:34;96327.41;;;9.48;100.00
44131;BME280;29792;48.726;9.248;2024-03-23T08:49:59;96355.13;;;9.81;100.00
44131;BME280;29792;48.726;9.248;2024-03-23T08:52:25;96378.59;;;9.96;100.00
44131;BME280;29792;48.726;9.248;2024-03-23T08:54:53;96383.72;;;9.96;100.00
44131;BME280;29792;48.726;9.248;2024-03-23T08:57:18;96393.25;;;9.94;100.00
44131;BME280;29792;48.726;9.248;2024-03-23T08:59:44;96397.44;;;9.95;99.65
44131;BME280;29792;48.726;9.248;2024-03-23T09:02:09;96415.63;;;10.02;98.97
44131;BME280;29792;48.726;9.248;2024-03-23T09:04:34;96430.28;;;10.00;97.20
44131;BME280;29792;48.726;9.248;2024-03-23T09:07:00;96436.88;;;9.92;96.02
44131;BME280;29792;48.726;9.248;2024-03-23T09:09:25;96438.47;;;9.74;94.49
44131;BME280;29792;48.726;9.248;2024-03-23T09:11:51;96442.06;;;9.62;94.86
44131;BME280;29792;48.726;9.248;2024-03-23T09:14:16;96447.41;;;9.49;93.82
44131;BME280;29792;48.726;9.248;2024-03-23T09:16:41;96472.91;;;9.30;92.72
44131;BME280;29792;48.726;9.248;2024-03-23T09:19:06;96472.00;;;9.10;91.89
44131;BME280;29792;48.726;9.248;2024-03-23T09:21:32;96473.03;;;8.98;91.82
44131;BME280;29792;48.726;9.248;2024-03-23T09:23:57;96484.31;;;8.96;92.78
44131;BME280;29792;48.726;9.248;2024-03-23T09:26:23;96497.75;;;8.98;92.74
44131;BME280;29792;48.726;9.248;2024-03-23T09:28:49;96487.16;;;9.02;92.55
44131;BME280;29792;48.726;9.248;2024-03-23T09:31:14;96473.63;;;9.11;92.66
44131;BME280;29792;48.726;9.248;2024-03-23T09:33:40;96473.69;;;9.21;92.03
44131;BME280;29792;48.726;9.248;2024-03-23T09:36:06;96474.25;;;9.34;92.03
44131;BME280;29792;48.726;9.248;2024-03-23T09:38:32;96474.47;;;9.52;90.84
44131;BME280;29792;48.726;9.248;2024-03-23T09:40:58;96469.81;;;9.76;90.25
44131;BME280;29792;48.726;9.248;2024-03-23T09:43:24;96465.00;;;9.92;86.55
44131;BME280;29792;48.726;9.248;2024-03-23T09:45:49;96461.00;;;10.09;84.36
44131;BME280;29792;48.726;9.248;2024-03-23T09:48:15;96452.69;;;10.26;82.20
44131;BME280;29792;48.726;9.248;2024-03-23T09:50:42;96456.72;;;10.19;76.87
44131;BME280;29792;48.726;9.248;2024-03-23T09:53:10;96448.47;;;10.06;74.23
44131;BME280;29792;48.726;9.248;2024-03-23T09:55:37;96454.81;;;10.02;74.51
44131;BME280;29792;48.726;9.248;2024-03-23T09:58:04;96460.84;;;10.01;75.47
44131;BME280;29792;48.726;9.248;2024-03-23T10:00:34;96456.13;;;9.87;72.40
44131;BME280;29792;48.726;9.248;2024-03-23T10:03:00;96466.59;;;9.74;72.30
44131;BME280;29792;48.726;9.248;2024-03-23T10:05:29;96463.59;;;9.60;73.35
44131;BME280;29792;48.726;9.248;2024-03-23T10:07:57;96462.09;;;9.47;73.64
44131;BME280;29792;48.726;9.248;2024-03-23T10:10:24;96463.72;;;9.48;74.70
44131;BME280;29792;48.726;9.248;2024-03-23T10:12:50;96448.25;;;9.60;74.83
44131;BME280;29792;48.726;9.248;2024-03-23T10:15:23;96449.63;;;9.64;74.24
44131;BME280;29792;48.726;9.248;2024-03-23T10:17:49;96450.16;;;9.67;74.61
44131;BME280;29792;48.726;9.248;2024-03-23T10:20:22;96445.84;;;9.68;73.80
44131;BME280;29792;48.726;9.248;2024-03-23T10:22:51;96440.31;;;9.63;73.67
44131;BME280;29792;48.726;9.248;2024-03-23T10:25:24;96448.69;;;9.74;74.87
44131;BME280;29792;48.726;9.248;2024-03-23T10:27:58;96457.50;;;10.01;76.46
44131;BME280;29792;48.726;9.248;2024-03-23T10:30:24;96438.53;;;10.22;74.47
44131;BME280;29792;48.726;9.248;2024-03-23T10:33:06;96433.56;;;10.21;72.18
44131;BME280;29792;48.726;9.248;2024-03-23T10:35:32;96438.25;;;10.16;71.36
44131;BME280;29792;48.726;9.248;2024-03-23T10:37:57;96435.41;;;10.77;70.53
44131;BME280;29792;48.726;9.248;2024-03-23T10:40:23;96430.91;;;11.35;68.37
44131;BME280;29792;48.726;9.248;2024-03-23T10:42:49;96418.91;;;12.34;63.87
44131;BME280;29792;48.726;9.248;2024-03-23T10:45:17;96427.97;;;12.20;59.63
44131;BME280;29792;48.726;9.248;2024-03-23T10:47:42;96421.00;;;11.67;58.75
44131;BME280;29792;48.726;9.248;2024-03-23T10:50:08;96421.75;;;11.23;58.68
44131;BME280;29792;48.726;9.248;2024-03-23T10:52:33;96429.72;;;10.83;59.61
44131;BME280;29792;48.726;9.248;2024-03-23T10:55:00;96436.63;;;10.63;61.15
44131;BME280;29792;48.726;9.248;2024-03-23T10:57:39;96446.78;;;10.36;60.81
44131;BME280;29792;48.726;9.248;2024-03-23T11:00:06;96447.81;;;10.04;62.19
44131;BME280;29792;48.726;9.248;2024-03-23T11:02:31;96455.53;;;9.64;65.50
44131;BME280;29792;48.726;9.248;2024-03-23T11:04:57;96494.00;;;9.23;68.75
44131;BME280;29792;48.726;9.248;2024-03-23T11:07:29;96507.41;;;8.94;73.91
44131;BME280;29792;48.726;9.248;2024-03-23T11:09:56;96526.56;;;8.47;75.54
44131;BME280;29792;48.726;9.248;2024-03-23T11:14:50;96520.56;;;7.49;81.00
44131;BME280;29792;48.726;9.248;2024-03-23T11:17:20;96504.56;;;7.14;83.75
44131;BME280;29792;48.726;9.248;2024-03-23T11:20:02;96515.56;;;7.03;87.43
44131;BME280;29792;48.726;9.248;2024-03-23T11:25:21;96511.06;;;7.18;94.45
44131;BME280;29792;48.726;9.248;2024-03-23T11:27:52;96501.44;;;7.33;95.96
44131;BME280;29792;48.726;9.248;2024-03-23T11:30:27;96503.19;;;7.54;96.63
44131;BME280;29792;48.726;9.248;2024-03-23T11:32:55;96501.34;;;7.68;96.82
44131;BME280;29792;48.726;9.248;2024-03-23T11:35:27;96521.25;;;7.85;96.76
44131;BME280;29792;48.726;9.248;2024-03-23T11:38:14;96515.00;;;9.56;100.00
44131;BME280;29792;48.726;9.248;2024-03-23T11:40:42;96502.53;;;10.22;93.97
44131;BME280;29792;48.726;9.248;2024-03-23T11:43:12;96495.88;;;10.10;90.55
44131;BME280;29792;48.726;9.248;2024-03-23T11:45:42;96490.34;;;9.95;89.46
44131;BME280;29792;48.726;9.248;2024-03-23T11:48:12;96495.38;;;10.74;93.05
44131;BME280;29792;48.726;9.248;2024-03-23T11:50:40;96491.44;;;12.28;89.50
44131;BME280;29792;48.726;9.248;2024-03-23T11:53:26;96484.22;;;12.13;78.74
44131;BME280;29792;48.726;9.248;2024-03-23T11:55:56;96484.19;;;12.23;77.20
44131;BME280;29792;48.726;9.248;2024-03-23T11:58:24;96490.38;;;12.03;73.41
44131;BME280;29792;48.726;9.248;2024-03-23T12:00:55;96487.69;;;11.40;73.12
44131;BME280;29792;48.726;9.248;2024-03-23T12:03:21;96496.06;;;10.76;73.99
44131;BME280;29792;48.726;9.248;2024-03-23T12:05:51;96496.59;;;10.31;76.29
44131;BME280;29792;48.726;9.248;2024-03-23T12:08:36;96488.31;;;9.99;76.99
44131;BME280;29792;48.726;9.248;2024-03-23T12:11:10;96495.97;;;9.89;78.86
44131;BME280;29792;48.726;9.248;2024-03-23T12:13:37;96486.69;;;9.88;79.34
44131;BME280;29792;48.726;9.248;2024-03-23T12:16:13;96485.88;;;9.88;78.70
44131;BME280;29792;48.726;9.248;2024-03-23T12:18:43;96486.13;;;9.85;78.13
44131;BME280;29792;48.726;9.248;2024-03-23T12:21:08;96487.19;;;9.82;77.90
44131;BME280;29792;48.726;9.248;2024-03-23T12:23:34;96492.56;;;9.70;74.91
44131;BME280;29792;48.726;9.248;2024-03-23T12:26:00;96491.03;;;9.57;74.92
44131;BME280;29792;48.726;9.248;2024-03-23T12:28:25;96484.00;;;9.40;72.72
44131;BME280;29792;48.726;9.248;2024-03-23T12:30:51;96486.63;;;9.29;73.18
44131;BME280;29792;48.726;9.248;2024-03-23T12:33:20;96475.84;;;9.26;74.42
44131;BME280;29792;48.726;9.248;2024-03-23T12:35:46;96482.06;;;9.33;75.38
44131;BME280;29792;48.726;9.248;2024-03-23T12:38:11;96474.44;;;9.42;76.34
44131;BME280;29792;48.726;9.248;2024-03-23T12:40:36;96478.59;;;9.43;74.16
44131;BME280;29792;48.726;9.248;2024-03-23T12:43:02;96482.50;;;9.38;73.48
44131;BME280;29792;48.726;9.248;2024-03-23T12:45:27;96474.56;;;9.41;73.86
44131;BME280;29792;48.726;9.248;2024-03-23T12:47:52;96479.19;;;9.47;73.07
44131;BME280;29792;48.726;9.248;2024-03-23T12:50:19;96483.06;;;9.51;72.62
44131;BME280;29792;48.726;9.248;2024-03-23T12:52:44;96480.09;;;9.46;72.19
44131;BME280;29792;48.726;9.248;2024-03-23T12:55:09;96471.91;;;9.52;72.50
44131;BME280;29792;48.726;9.248;2024-03-23T12:57:34;96469.00;;;9.56;71.25
44131;BME280;29792;48.726;9.248;2024-03-23T13:00:00;96471.66;;;9.55;70.85
44131;BME280;29792;48.726;9.248;2024-03-23T13:02:25;96462.38;;;9.54;71.77
44131;BME280;29792;48.726;9.248;2024-03-23T13:04:51;96462.88;;;9.88;73.96
44131;BME280;29792;48.726;9.248;2024-03-23T13:07:17;96458.19;;;10.12;71.96
44131;BME280;29792;48.726;9.248;2024-03-23T13:09:43;96455.84;;;11.60;77.48
44131;BME280;29792;48.726;9.248;2024-03-23T13:12:09;96445.31;;;13.39;70.95
44131;BME280;29792;48.726;9.248;2024-03-23T13:14:34;96454.03;;;13.46;61.83
44131;BME280;29792;48.726;9.248;2024-03-23T13:17:00;96453.34;;;12.84;60.85
44131;BME280;29792;48.726;9.248;2024-03-23T13:19:25;96459.72;;;12.19;60.08
44131;BME280;29792;48.726;9.248;2024-03-23T13:21:56;96448.16;;;11.60;61.51
44131;BME280;29792;48.726;9.248;2024-03-23T13:24:22;96444.63;;;12.77;69.59
44131;BME280;29792;48.726;9.248;2024-03-23T13:26:49;96449.41;;;14.08;60.45
44131;BME280;29792;48.726;9.248;2024-03-23T13:29:15;96430.09;;;13.46;56.18
44131;BME280;29792;48.726;9.248;2024-03-23T13:31:40;96443.72;;;12.86;56.52
44131;BME280;29792;48.726;9.248;2024-03-23T13:34:05;96445.47;;;12.24;54.69
44131;BME280;29792;48.726;9.248;2024-03-23T13:36:31;96431.56;;;11.64;55.41
44131;BME280;29792;48.726;9.248;2024-03-23T13:38:56;96421.09;;;11.21;55.11
44131;BME280;29792;48.726;9.248;2024-03-23T13:41:21;96424.28;;;10.95;55.46
44131;BME280;29792;48.726;9.248;2024-03-23T13:43:46;96416.09;;;10.82;55.37
44131;BME280;29792;48.726;9.248;2024-03-23T13:46:12;96413.59;;;12.96;63.58
44131;BME280;29792;48.726;9.248;2024-03-23T13:48:37;96402.34;;;15.50;55.36
44131;BME280;29792;48.726;9.248;2024-03-23T13:51:03;96397.78;;;17.41;49.15
44131;BME280;29792;48.726;9.248;2024-03-23T13:53:29;96401.44;;;18.61;44.80
44131;BME280;29792;48.726;9.248;2024-03-23T13:55:55;96402.44;;;19.23;42.32
44131;BME280;29792;48.726;9.248;2024-03-23T13:58:20;96407.72;;;19.77;40.54